sensor_id;sensor_type;location;lat;lon;timestamp;P1;durP1;ratioP1;P2;durP2;ratioP2
14774;SDS011;7479;47.042;15.160;2022-12-13T10:17:16;7.00;;;4.47;;
14774;SDS011;7479;47.042;15.160;2022-12-13T10:22:13;6.83;;;4.83;;
14774;SDS011;7479;47.042;15.160;2022-12-13T10:27:10;5.97;;;4.40;;
14774;SDS011;7479;47.042;15.160;2022-12-13T10:32:10;4.90;;;4.40;;
14774;SDS011;7479;47.042;15.160;2022-12-13T10:37:11;6.77;;;4.50;;
14774;SDS011;7479;47.042;15.160;2022-12-13T10:42:20;5.93;;;4.47;;
14774;SDS011;7479;47.042;15.160;2022-12-13T10:47:21;9.73;;;6.30;;
14774;SDS011;7479;47.042;15.160;2022-12-13T10:52:31;9.00;;;5.57;;
14774;SDS011;7479;47.042;15.160;2022-12-13T10:57:34;6.27;;;4.10;;
14774;SDS011;7479;47.042;15.160;2022-12-13T11:02:29;6.77;;;4.47;;
14774;SDS011;7479;47.042;15.160;2022-12-13T11:07:28;8.83;;;4.80;;
14774;SDS011;7479;47.042;15.160;2022-12-13T11:12:23;6.80;;;4.80;;
14774;SDS011;7479;47.042;15.160;2022-12-13T11:17:20;8.00;;;3.77;;
14774;SDS011;7479;47.042;15.160;2022-12-13T11:22:20;6.27;;;4.27;;
14774;SDS011;7479;47.042;15.160;2022-12-13T11:27:27;7.57;;;4.60;;
14774;SDS011;7479;47.042;15.160;2022-12-13T11:32:41;8.43;;;4.67;;
14774;SDS011;7479;47.042;15.160;2022-12-13T11:37:51;6.23;;;4.70;;
14774;SDS011;7479;47.042;15.160;2022-12-13T11:42:56;7.33;;;4.93;;
14774;SDS011;7479;47.042;15.160;2022-12-13T11:48:01;6.30;;;4.87;;
14774;SDS011;7479;47.042;15.160;2022-12-13T11:53:14;6.77;;;4.57;;
14774;SDS011;7479;47.042;15.160;2022-12-13T11:58:17;6.47;;;4.60;;
14774;SDS011;7479;47.042;15.160;2022-12-13T12:03:39;6.30;;;4.70;;
14774;SDS011;7479;47.042;15.160;2022-12-13T12:08:37;5.40;;;4.03;;
14774;SDS011;7479;47.042;15.160;2022-12-13T12:13:40;5.40;;;4.43;;
14774;SDS011;7479;47.042;15.160;2022-12-13T12:18:42;6.27;;;4.00;;
14774;SDS011;7479;47.042;15.160;2022-12-13T12:23:39;7.23;;;3.83;;
14774;SDS011;7479;47.042;15.160;2022-12-13T12:34:34;5.03;;;3.60;;
14774;SDS011;7479;47.042;15.160;2022-12-13T12:39:48;5.67;;;3.40;;
14774;SDS011;7479;47.042;15.160;2022-12-13T12:44:59;4.57;;;3.60;;
14774;SDS011;7479;47.042;15.160;2022-12-13T12:50:25;5.50;;;3.20;;
14774;SDS011;7479;47.042;15.160;2022-12-13T12:55:42;5.10;;;3.93;;
14774;SDS011;7479;47.042;15.160;2022-12-13T13:00:42;5.03;;;4.20;;
14774;SDS011;7479;47.042;15.160;2022-12-13T13:05:46;8.80;;;6.47;;
14774;SDS011;7479;47.042;15.160;2022-12-13T13:10:52;8.00;;;4.40;;
14774;SDS011;7479;47.042;15.160;2022-12-13T13:15:53;7.93;;;4.80;;
14774;SDS011;7479;47.042;15.160;2022-12-13T13:20:53;6.73;;;4.87;;
14774;SDS011;7479;47.042;15.160;2022-12-13T13:26:26;4.40;;;4.00;;
14774;SDS011;7479;47.042;15.160;2022-12-13T13:31:27;4.63;;;4.17;;
14774;SDS011;7479;47.042;15.160;2022-12-13T13:36:58;5.87;;;3.83;;
14774;SDS011;7479;47.042;15.160;2022-12-13T13:47:11;4.80;;;4.30;;
14774;SDS011;7479;47.042;15.160;2022-12-13T13:52:11;12.57;;;6.37;;
14774;SDS011;7479;47.042;15.160;2022-12-13T13:57:24;6.80;;;4.00;;
14774;SDS011;7479;47.042;15.160;2022-12-13T14:08:40;6.80;;;4.67;;
14774;SDS011;7479;47.042;15.160;2022-12-13T14:13:54;7.93;;;4.30;;
14774;SDS011;7479;47.042;15.160;2022-12-13T14:19:26;5.27;;;3.90;;
14774;SDS011;7479;47.042;15.160;2022-12-13T14:24:53;6.87;;;4.57;;
14774;SDS011;7479;47.042;15.160;2022-12-13T14:29:55;5.83;;;4.63;;
14774;SDS011;7479;47.042;15.160;2022-12-13T14:34:50;7.70;;;5.00;;
14774;SDS011;7479;47.042;15.160;2022-12-13T14:39:45;7.83;;;4.77;;
14774;SDS011;7479;47.042;15.160;2022-12-13T14:44:41;6.53;;;5.10;;
14774;SDS011;7479;47.042;15.160;2022-12-13T14:49:35;6.17;;;4.70;;
14774;SDS011;7479;47.042;15.160;2022-12-13T14:54:40;7.07;;;5.30;;
14774;SDS011;7479;47.042;15.160;2022-12-13T14:59:45;7.43;;;5.13;;
14774;SDS011;7479;47.042;15.160;2022-12-13T15:04:41;10.07;;;5.73;;
14774;SDS011;7479;47.042;15.160;2022-12-13T15:09:36;12.77;;;6.97;;
14774;SDS011;7479;47.042;15.160;2022-12-13T15:14:31;20.03;;;8.97;;
14774;SDS011;7479;47.042;15.160;2022-12-13T15:19:27;17.70;;;9.57;;
14774;SDS011;7479;47.042;15.160;2022-12-13T15:24:31;18.57;;;9.73;;
14774;SDS011;7479;47.042;15.160;2022-12-13T15:29:29;19.63;;;10.37;;
14774;SDS011;7479;47.042;15.160;2022-12-13T15:34:33;15.47;;;9.30;;
14774;SDS011;7479;47.042;15.160;2022-12-13T15:39:27;18.67;;;10.13;;
14774;SDS011;7479;47.042;15.160;2022-12-13T15:44:24;18.77;;;11.23;;
14774;SDS011;7479;47.042;15.160;2022-12-13T15:49:20;23.10;;;13.07;;
14774;SDS011;7479;47.042;15.160;2022-12-13T15:54:19;31.27;;;14.63;;
14774;SDS011;7479;47.042;15.160;2022-12-13T15:59:22;41.17;;;18.60;;
14774;SDS011;7479;47.042;15.160;2022-12-13T16:04:20;35.43;;;17.30;;
14774;SDS011;7479;47.042;15.160;2022-12-13T16:09:16;29.60;;;18.93;;
14774;SDS011;7479;47.042;15.160;2022-12-13T16:19:40;21.17;;;13.17;;
14774;SDS011;7479;47.042;15.160;2022-12-13T16:24:34;19.20;;;11.80;;
14774;SDS011;7479;47.042;15.160;2022-12-13T16:29:28;22.70;;;13.53;;
14774;SDS011;7479;47.042;15.160;2022-12-13T16:34:23;36.90;;;21.90;;
14774;SDS011;7479;47.042;15.160;2022-12-13T16:39:17;21.30;;;13.57;;
14774;SDS011;7479;47.042;15.160;2022-12-13T16:44:15;23.23;;;14.30;;
14774;SDS011;7479;47.042;15.160;2022-12-13T16:49:18;25.07;;;14.93;;
14774;SDS011;7479;47.042;15.160;2022-12-13T16:54:15;21.00;;;12.53;;
14774;SDS011;7479;47.042;15.160;2022-12-13T16:59:11;15.90;;;10.50;;
14774;SDS011;7479;47.042;15.160;2022-12-13T17:04:07;12.53;;;9.83;;
14774;SDS011;7479;47.042;15.160;2022-12-13T17:09:10;14.80;;;8.73;;
14774;SDS011;7479;47.042;15.160;2022-12-13T17:14:05;17.13;;;11.00;;
14774;SDS011;7479;47.042;15.160;2022-12-13T17:18:59;15.47;;;10.60;;
14774;SDS011;7479;47.042;15.160;2022-12-13T17:23:53;17.73;;;12.07;;
14774;SDS011;7479;47.042;15.160;2022-12-13T17:28:48;20.33;;;11.50;;
14774;SDS011;7479;47.042;15.160;2022-12-13T17:33:43;18.10;;;11.47;;
14774;SDS011;7479;47.042;15.160;2022-12-13T17:38:40;19.47;;;12.60;;
14774;SDS011;7479;47.042;15.160;2022-12-13T17:43:34;35.93;;;21.17;;
14774;SDS011;7479;47.042;15.160;2022-12-13T17:48:29;31.13;;;15.30;;
